Time;durP1;ratioP1;P1;durP2;ratioP2;P2;SDS_P1;SDS_P2;PMS_P1;PMS_P2;Temp;Humidity;BMP_temperature;BMP_pressure;BME280_temperature;BME280_humidity;BME280_pressure;Samples;Min_cycle;Max_cycle;Signal;HPM_P1;HPM_P2
2022/09/13 00:00:42;;;;;;;14.57;7.85;;;15.70;99.90;;;;;;4828921;29;20477;-81
2022/09/13 00:03:09;;;;;;;14.60;7.47;;;15.70;99.90;;;;;;4828593;29;20110;-81
2022/09/13 00:05:36;;;;;;;11.65;7.22;;;15.70;99.90;;;;;;4845319;29;20057;-81
2022/09/13 00:08:02;;;;;;;12.80;7.47;;;15.70;99.90;;;;;;4845264;29;20037;-82
2022/09/13 00:10:28;;;;;;;15.98;8.02;;;15.70;99.90;;;;;;4844965;29;20105;-81
2022/09/13 00:12:54;;;;;;;12.15;7.53;;;15.60;99.90;;;;;;4845098;29;20030;-82
2022/09/13 00:15:20;;;;;;;11.35;7.57;;;15.60;99.90;;;;;;4843744;29;20477;-81
2022/09/13 00:17:46;;;;;;;12.73;7.15;;;15.60;99.90;;;;;;4845813;29;20038;-82
2022/09/13 00:20:12;;;;;;;17.35;8.68;;;15.60;99.90;;;;;;4849016;29;20485;-81
2022/09/13 00:22:38;;;;;;;12.15;7.32;;;15.60;99.90;;;;;;4862941;29;20044;-82
2022/09/13 00:25:06;;;;;;;17.05;7.65;;;15.60;99.90;;;;;;4863125;29;20120;-83
2022/09/13 00:27:33;;;;;;;15.48;7.88;;;15.60;99.90;;;;;;4863668;29;20065;-83
2022/09/13 00:29:59;;;;;;;14.15;7.55;;;15.60;99.90;;;;;;4863158;29;20040;-82
2022/09/13 00:32:25;;;;;;;11.85;7.65;;;15.50;99.90;;;;;;4863281;29;20040;-81
2022/09/13 00:34:51;;;;;;;14.52;6.75;;;15.50;99.90;;;;;;4862141;29;20025;-82
2022/09/13 00:37:17;;;;;;;12.10;7.75;;;15.50;99.90;;;;;;4861586;29;20100;-82
2022/09/13 00:39:43;;;;;;;12.88;9.88;;;15.50;99.90;;;;;;4861922;29;20029;-83
2022/09/13 00:42:12;;;;;;;21.95;7.80;;;15.50;99.90;;;;;;4863103;29;20105;-81
2022/09/13 00:44:59;;;;;;;10.73;7.53;;;15.40;99.90;;;;;;4861208;29;20033;-83
2022/09/13 00:47:39;;;;;;;15.38;6.78;;;15.40;99.90;;;;;;4854688;29;20033;-82
2022/09/13 00:50:19;;;;;;;11.43;6.57;;;15.40;99.90;;;;;;4847603;29;20058;-82
2022/09/13 00:52:49;;;;;;;15.93;7.18;;;15.40;99.90;;;;;;4849940;29;20430;-82
2022/09/13 00:55:39;;;;;;;10.68;6.82;;;15.50;99.90;;;;;;4860504;29;20401;-82
2022/09/13 00:58:11;;;;;;;14.02;7.75;;;15.40;99.90;;;;;;4860390;29;20025;-81
2022/09/13 01:00:38;;;;;;;14.00;7.75;;;15.40;99.90;;;;;;4859915;29;20033;-82
2022/09/13 01:03:10;;;;;;;12.52;7.82;;;15.40;99.90;;;;;;4845369;29;20435;-81
2022/09/13 01:05:46;;;;;;;12.05;7.45;;;15.30;99.90;;;;;;4833570;29;20126;-83
2022/09/13 01:08:21;;;;;;;14.23;7.07;;;15.40;99.90;;;;;;4844821;29;20022;-81
2022/09/13 01:10:50;;;;;;;9.32;7.00;;;15.30;99.90;;;;;;4860404;29;20082;-84
2022/09/13 01:13:25;;;;;;;10.95;7.00;;;15.30;99.90;;;;;;4852658;29;20028;-83
2022/09/13 01:15:51;;;;;;;12.88;7.65;;;15.30;99.90;;;;;;4860520;29;20171;-82
2022/09/13 01:18:18;;;;;;;12.80;7.22;;;15.20;99.90;;;;;;4861360;29;20121;-82
2022/09/13 01:21:02;;;;;;;14.05;7.55;;;15.20;99.90;;;;;;4861422;29;20036;-81
2022/09/13 01:23:56;;;;;;;9.95;7.40;;;15.20;99.90;;;;;;4852577;29;20034;-81
2022/09/13 01:27:10;;;;;;;12.15;7.60;;;15.10;99.90;;;;;;4837522;29;20037;-82
2022/09/13 01:29:57;;;;;;;10.88;7.50;;;15.10;99.90;;;;;;4831751;29;20064;-82
2022/09/13 01:32:43;;;;;;;9.90;7.10;;;15.10;99.90;;;;;;4860098;29;20040;-82
2022/09/13 01:35:27;;;;;;;12.13;7.88;;;15.00;99.90;;;;;;4844981;29;20033;-82
2022/09/13 01:38:12;;;;;;;13.85;8.43;;;15.00;99.90;;;;;;4839633;29;20026;-82
2022/09/13 01:41:16;;;;;;;12.10;7.55;;;14.90;99.90;;;;;;4848818;29;20549;-82
2022/09/13 01:43:51;;;;;;;10.50;7.65;;;14.90;99.90;;;;;;4847482;29;20034;-81
2022/09/13 01:46:35;;;;;;;12.27;7.18;;;14.90;99.90;;;;;;4843008;29;20117;-82
2022/09/13 01:49:29;;;;;;;10.60;7.93;;;14.80;99.90;;;;;;4841620;29;20120;-82
2022/09/13 01:52:09;;;;;;;13.50;7.82;;;14.80;99.90;;;;;;4823930;29;20107;-83
2022/09/13 01:54:59;;;;;;;14.07;8.13;;;14.80;99.90;;;;;;4823208;29;20054;-81
2022/09/13 01:57:40;;;;;;;13.43;8.32;;;14.80;99.90;;;;;;4824234;29;20041;-82
2022/09/13 02:00:09;;;;;;;13.23;8.13;;;14.80;99.90;;;;;;4824248;29;20030;-81
2022/09/13 02:02:46;;;;;;;11.05;6.93;;;14.80;99.90;;;;;;4824202;29;20045;-81
2022/09/13 02:05:27;;;;;;;10.57;6.85;;;14.80;99.90;;;;;;4824296;29;20043;-81
2022/09/13 02:07:59;;;;;;;13.20;7.50;;;14.80;99.90;;;;;;4823749;29;20176;-81
2022/09/13 02:10:52;;;;;;;12.80;7.43;;;14.80;99.90;;;;;;4823615;29;20030;-81
2022/09/13 02:13:26;;;;;;;14.90;6.78;;;14.90;99.90;;;;;;4824300;29;20038;-82
2022/09/13 02:15:57;;;;;;;13.77;7.55;;;14.80;99.90;;;;;;4823973;29;20383;-82
2022/09/13 02:18:37;;;;;;;10.37;6.60;;;14.80;99.90;;;;;;4824118;29;20030;-83
2022/09/13 02:21:15;;;;;;;19.25;12.05;;;14.80;99.90;;;;;;4824168;29;20066;-81
2022/09/13 02:23:47;;;;;;;18.15;16.27;;;14.80;99.90;;;;;;4823369;29;20038;-82
2022/09/13 02:26:14;;;;;;;13.15;8.60;;;14.70;99.90;;;;;;4823563;29;20498;-82
2022/09/13 02:28:52;;;;;;;16.27;6.70;;;14.70;99.90;;;;;;4824006;29;20023;-83
2022/09/13 02:31:25;;;;;;;15.65;7.20;;;14.70;99.90;;;;;;4818209;29;20029;-82
2022/09/13 02:33:57;;;;;;;11.80;6.15;;;14.70;99.90;;;;;;4824347;29;20030;-82
2022/09/13 02:36:30;;;;;;;10.93;7.20;;;14.70;99.90;;;;;;4819850;29;20487;-83
2022/09/13 02:39:02;;;;;;;11.68;6.78;;;14.70;99.90;;;;;;4823458;29;20038;-82
2022/09/13 02:41:55;;;;;;;12.23;7.03;;;14.70;99.90;;;;;;4823711;29;20034;-83
2022/09/13 02:44:21;;;;;;;9.60;6.72;;;14.70;99.90;;;;;;4812804;29;20034;-83
2022/09/13 02:47:09;;;;;;;15.55;7.40;;;14.70;99.90;;;;;;4827298;29;20038;-82
2022/09/13 02:49:56;;;;;;;10.52;6.53;;;14.70;99.90;;;;;;4839816;29;20038;-83
2022/09/13 02:52:59;;;;;;;10.73;6.60;;;14.70;99.90;;;;;;4855339;29;20042;-81
2022/09/13 02:55:40;;;;;;;12.30;6.55;;;14.70;99.90;;;;;;4843595;29;20090;-81
2022/09/13 02:58:31;;;;;;;9.23;7.40;;;14.80;99.90;;;;;;4846928;29;20042;-81
2022/09/13 03:00:57;;;;;;;13.52;6.30;;;14.80;99.90;;;;;;4858683;29;20874;-83
2022/09/13 03:03:24;;;;;;;11.45;6.57;;;14.80;99.90;;;;;;4858418;29;20120;-81
2022/09/13 03:05:49;;;;;;;13.18;7.15;;;14.70;99.90;;;;;;4859892;29;20477;-83
2022/09/13 03:08:17;;;;;;;17.17;7.53;;;14.70;99.90;;;;;;4859003;29;20040;-82
2022/09/13 03:11:17;;;;;;;12.23;7.55;;;14.70;99.90;;;;;;4846987;29;20032;-81
2022/09/13 03:14:07;;;;;;;13.18;6.82;;;14.70;99.90;;;;;;4842128;29;20078;-81
2022/09/13 03:17:01;;;;;;;11.07;6.88;;;14.70;99.90;;;;;;4840860;29;20030;-81
2022/09/13 03:19:42;;;;;;;15.57;6.85;;;14.70;99.90;;;;;;4842130;29;20026;-82
2022/09/13 03:22:21;;;;;;;10.80;6.83;;;14.70;99.90;;;;;;4840811;29;20037;-82
2022/09/13 03:24:57;;;;;;;13.75;7.07;;;14.70;99.90;;;;;;4858557;29;20040;-82
2022/09/13 03:27:41;;;;;;;11.20;7.30;;;14.70;99.90;;;;;;4858850;29;20070;-82
2022/09/13 03:30:11;;;;;;;11.07;6.85;;;14.60;99.90;;;;;;4842237;29;20050;-83
2022/09/13 03:33:11;;;;;;;9.43;6.50;;;14.60;99.90;;;;;;4845514;29;20032;-81
2022/09/13 03:35:39;;;;;;;10.55;7.05;;;14.50;99.90;;;;;;4842103;29;20034;-83
2022/09/13 03:38:45;;;;;;;12.48;7.10;;;14.50;99.90;;;;;;4841784;29;20053;-82
2022/09/13 03:41:18;;;;;;;16.33;9.38;;;14.50;99.90;;;;;;4803305;29;20492;-82
2022/09/13 03:43:52;;;;;;;18.58;7.75;;;14.40;99.90;;;;;;4802946;29;20054;-82
2022/09/13 03:46:33;;;;;;;12.35;7.50;;;14.40;99.90;;;;;;4805609;29;20525;-82
2022/09/13 03:49:05;;;;;;;15.25;7.63;;;14.30;99.90;;;;;;4806236;29;20106;-82
2022/09/13 03:51:32;;;;;;;13.43;7.65;;;14.30;99.90;;;;;;4806353;29;20055;-82
2022/09/13 03:54:03;;;;;;;12.57;8.35;;;14.30;99.90;;;;;;4806433;29;20505;-82
2022/09/13 03:56:29;;;;;;;14.27;8.10;;;14.30;99.90;;;;;;4806371;29;20046;-83
2022/09/13 03:58:55;;;;;;;14.05;6.85;;;14.30;99.90;;;;;;4805510;29;20278;-82
2022/09/13 04:01:23;;;;;;;12.10;7.07;;;14.30;99.90;;;;;;4805927;29;20030;-82
2022/09/13 04:03:49;;;;;;;10.82;7.05;;;14.20;99.90;;;;;;4805496;29;20043;-82
2022/09/13 04:06:15;;;;;;;15.23;9.25;;;14.20;99.90;;;;;;4805920;29;20049;-83
2022/09/13 04:08:41;;;;;;;16.05;8.07;;;14.20;99.90;;;;;;4806166;29;20039;-82
2022/09/13 04:11:08;;;;;;;15.82;8.57;;;14.10;99.90;;;;;;4806154;29;20129;-82
2022/09/13 04:13:35;;;;;;;16.10;8.77;;;14.10;99.90;;;;;;4805700;29;20046;-81
2022/09/13 04:16:03;;;;;;;18.58;9.23;;;14.10;99.90;;;;;;4822016;29;20133;-83
2022/09/13 04:18:29;;;;;;;17.50;8.65;;;14.10;99.90;;;;;;4825617;29;20127;-82
2022/09/13 04:20:57;;;;;;;16.73;8.35;;;14.10;99.90;;;;;;4826035;29;20038;-82
2022/09/13 04:23:24;;;;;;;20.42;11.25;;;14.10;99.90;;;;;;4824825;29;20378;-83
2022/09/13 04:25:50;;;;;;;17.65;11.18;;;14.10;99.90;;;;;;4825825;29;20368;-81
2022/09/13 04:28:17;;;;;;;18.80;10.65;;;14.10;99.90;;;;;;4825356;29;20113;-82
2022/09/13 04:30:44;;;;;;;28.63;10.77;;;14.10;99.90;;;;;;4824967;29;20424;-82
2022/09/13 04:33:10;;;;;;;25.08;9.43;;;14.10;99.90;;;;;;4823149;29;20118;-81
2022/09/13 04:35:37;;;;;;;18.73;10.25;;;14.10;99.90;;;;;;4825257;29;20113;-82
2022/09/13 04:38:06;;;;;;;19.67;9.35;;;14.00;99.90;;;;;;4824484;29;20026;-82
2022/09/13 04:40:33;;;;;;;20.75;9.07;;;14.10;99.90;;;;;;4825724;29;20387;-81
2022/09/13 04:43:03;;;;;;;15.50;9.05;;;14.10;99.90;;;;;;4808114;29;20041;-82
2022/09/13 04:45:29;;;;;;;20.73;8.88;;;14.10;99.90;;;;;;4825067;29;20479;-82
2022/09/13 04:47:56;;;;;;;27.95;9.27;;;14.10;99.90;;;;;;4825053;29;20150;-81
2022/09/13 04:50:23;;;;;;;18.50;8.93;;;14.10;99.90;;;;;;4844721;29;20490;-82
2022/09/13 04:52:49;;;;;;;16.08;8.57;;;14.10;99.90;;;;;;4856144;29;20057;-84
2022/09/13 04:55:15;;;;;;;13.98;8.30;;;14.10;99.90;;;;;;4842455;29;20045;-81
2022/09/13 04:57:41;;;;;;;19.35;8.15;;;14.10;99.90;;;;;;4826155;29;20102;-83
2022/09/13 05:00:09;;;;;;;17.02;8.23;;;14.20;99.90;;;;;;4833778;29;20470;-81
2022/09/13 05:02:35;;;;;;;16.95;8.30;;;14.30;99.90;;;;;;4826990;29;20038;-81
2022/09/13 05:05:01;;;;;;;19.92;8.40;;;14.30;99.90;;;;;;4837383;29;20034;-83
2022/09/13 05:07:27;;;;;;;18.25;7.78;;;14.40;99.90;;;;;;4850630;29;20537;-80
2022/09/13 05:09:52;;;;;;;16.88;8.93;;;14.50;99.90;;;;;;4845967;29;20117;-80
2022/09/13 05:12:18;;;;;;;16.90;9.57;;;14.50;99.90;;;;;;4843153;29;20045;-80
2022/09/13 05:14:44;;;;;;;18.08;10.93;;;14.60;99.90;;;;;;4849929;29;20045;-80
2022/09/13 05:17:10;;;;;;;14.40;9.30;;;14.60;99.90;;;;;;4861281;29;20521;-79
2022/09/13 05:19:36;;;;;;;18.65;9.13;;;14.70;99.90;;;;;;4861449;29;20081;-79
2022/09/13 05:22:02;;;;;;;14.13;8.40;;;14.80;99.90;;;;;;4861624;29;20042;-80
2022/09/13 05:24:28;;;;;;;18.38;8.45;;;14.80;99.90;;;;;;4842007;29;20374;-81
2022/09/13 05:26:53;;;;;;;21.10;8.77;;;14.90;99.90;;;;;;4860974;29;20058;-79
2022/09/13 05:29:19;;;;;;;15.73;8.23;;;14.90;99.90;;;;;;4859705;29;20037;-81
2022/09/13 05:31:45;;;;;;;14.52;7.90;;;15.00;99.90;;;;;;4859175;29;20393;-80
2022/09/13 05:34:19;;;;;;;18.08;8.20;;;15.10;99.90;;;;;;4841171;29;20120;-80
2022/09/13 05:36:45;;;;;;;17.08;7.78;;;15.10;99.90;;;;;;4855207;29;20029;-80
2022/09/13 05:39:14;;;;;;;20.88;8.63;;;15.20;99.90;;;;;;4841003;29;20029;-81
2022/09/13 05:41:40;;;;;;;18.77;9.50;;;15.30;99.90;;;;;;4842581;29;20038;-81
2022/09/13 05:44:07;;;;;;;17.17;8.98;;;15.30;99.90;;;;;;4842481;29;20050;-80
2022/09/13 05:46:32;;;;;;;17.42;9.05;;;15.40;99.90;;;;;;4842561;29;20042;-81
2022/09/13 05:48:58;;;;;;;14.73;8.30;;;15.50;99.90;;;;;;4851023;29;20533;-80
2022/09/13 05:51:24;;;;;;;18.25;10.57;;;15.60;99.90;;;;;;4847202;29;20060;-84
2022/09/13 05:53:52;;;;;;;21.90;13.27;;;15.70;99.90;;;;;;4842525;29;20045;-81
2022/09/13 05:56:21;;;;;;;21.88;12.93;;;15.80;99.90;;;;;;4841683;29;20116;-81
2022/09/13 05:58:48;;;;;;;26.48;13.50;;;15.90;99.90;;;;;;4831815;29;20030;-81
2022/09/13 06:01:16;;;;;;;27.42;12.10;;;15.90;99.90;;;;;;4841702;29;20057;-80
2022/09/13 06:03:42;;;;;;;20.77;11.60;;;16.00;99.90;;;;;;4861721;29;20061;-81
2022/09/13 06:06:09;;;;;;;16.23;8.75;;;16.00;99.90;;;;;;4861615;29;20057;-80
2022/09/13 06:08:36;;;;;;;24.15;13.57;;;16.00;99.90;;;;;;4861376;29;20132;-80
2022/09/13 06:11:07;;;;;;;25.00;12.57;;;16.00;99.90;;;;;;4860319;29;20431;-81
2022/09/13 06:13:33;;;;;;;18.88;10.88;;;16.10;99.90;;;;;;4861590;29;20031;-79
2022/09/13 06:16:01;;;;;;;20.63;8.88;;;16.20;99.90;;;;;;4857243;29;20545;-80
2022/09/13 06:18:28;;;;;;;16.77;9.32;;;16.30;99.90;;;;;;4849908;29;20435;-80
2022/09/13 06:20:59;;;;;;;22.17;10.65;;;16.40;99.90;;;;;;4852741;29;20037;-81
2022/09/13 06:23:26;;;;;;;19.33;8.53;;;16.50;99.90;;;;;;4842561;29;20030;-81
2022/09/13 06:26:12;;;;;;;15.75;7.97;;;16.60;99.90;;;;;;4853903;29;20344;-81
2022/09/13 06:28:38;;;;;;;13.88;9.90;;;16.70;99.90;;;;;;4852498;29;20439;-82
2022/09/13 06:31:07;;;;;;;16.30;9.57;;;16.90;99.90;;;;;;4843229;29;20054;-81
2022/09/13 06:33:34;;;;;;;17.17;9.10;;;16.90;99.90;;;;;;4843170;29;20040;-83
2022/09/13 06:36:16;;;;;;;12.10;7.63;;;17.10;99.90;;;;;;4840967;29;20087;-82
2022/09/13 06:38:43;;;;;;;11.93;7.05;;;17.10;99.90;;;;;;4843236;29;20042;-81
2022/09/13 06:41:12;;;;;;;13.10;6.90;;;17.10;99.90;;;;;;4837158;29;20032;-82
2022/09/13 06:43:38;;;;;;;10.35;6.75;;;17.30;99.90;;;;;;4842574;29;20105;-82
2022/09/13 06:46:10;;;;;;;21.60;6.25;;;17.30;99.90;;;;;;4843011;29;20034;-82
2022/09/13 06:48:38;;;;;;;13.70;7.53;;;17.40;99.90;;;;;;4841603;29;20398;-82
2022/09/13 06:51:06;;;;;;;9.75;6.47;;;17.60;99.90;;;;;;4841516;29;20438;-81
2022/09/13 06:53:34;;;;;;;10.10;6.10;;;17.80;99.90;;;;;;4842341;29;20109;-83
2022/09/13 06:56:23;;;;;;;13.02;6.85;;;17.80;99.90;;;;;;4842430;29;20508;-80
2022/09/13 06:58:53;;;;;;;7.85;5.50;;;18.00;99.90;;;;;;4826138;29;20121;-83
2022/09/13 07:01:28;;;;;;;12.75;6.30;;;18.20;99.90;;;;;;4842457;29;20486;-82
2022/09/13 07:04:01;;;;;;;9.40;5.82;;;18.30;99.90;;;;;;4842563;29;20830;-81
2022/09/13 07:06:29;;;;;;;12.32;6.13;;;18.50;99.90;;;;;;4841621;29;20439;-81
2022/09/13 07:08:57;;;;;;;11.63;6.18;;;18.50;99.90;;;;;;4846944;29;20116;-81
2022/09/13 07:11:25;;;;;;;13.50;5.45;;;18.60;99.90;;;;;;4861210;29;20037;-81
2022/09/13 07:13:56;;;;;;;10.25;5.50;;;18.70;99.90;;;;;;4859819;29;20537;-80
2022/09/13 07:16:30;;;;;;;9.00;5.25;;;18.90;99.90;;;;;;4846615;29;20163;-80
2022/09/13 07:18:58;;;;;;;13.80;7.63;;;19.00;99.90;;;;;;4838324;29;20041;-80
2022/09/13 07:21:25;;;;;;;9.27;5.95;;;19.10;99.90;;;;;;4832973;29;20030;-78
2022/09/13 07:23:52;;;;;;;7.22;5.32;;;19.10;99.90;;;;;;4839136;29;20041;-80
2022/09/13 07:26:18;;;;;;;13.40;5.40;;;19.10;99.90;;;;;;4838550;29;20040;-79
2022/09/13 07:28:46;;;;;;;11.43;5.57;;;19.20;99.90;;;;;;4846587;29;20034;-80
2022/09/13 07:31:21;;;;;;;11.77;6.38;;;19.30;99.90;;;;;;4855807;29;20037;-81
2022/09/13 07:33:52;;;;;;;15.50;5.65;;;19.40;99.90;;;;;;4834033;29;20037;-80
2022/09/13 07:36:18;;;;;;;8.90;6.13;;;19.50;99.90;;;;;;4848983;29;20071;-82
2022/09/13 07:38:44;;;;;;;9.75;5.28;;;19.60;99.90;;;;;;4852711;29;20276;-81
2022/09/13 07:41:16;;;;;;;9.43;5.90;;;19.80;99.90;;;;;;4845583;29;20041;-81
2022/09/13 07:43:42;;;;;;;16.30;6.65;;;20.00;99.90;;;;;;4844596;29;20031;-81
2022/09/13 07:46:14;;;;;;;14.48;7.07;;;20.10;99.90;;;;;;4843532;29;20065;-80
2022/09/13 07:48:42;;;;;;;12.27;6.75;;;20.30;99.90;;;;;;4835291;29;20382;-80
2022/09/13 07:51:19;;;;;;;9.73;5.30;;;20.50;99.90;;;;;;4832671;29;20049;-80
2022/09/13 07:53:46;;;;;;;8.55;4.50;;;20.50;99.90;;;;;;4846304;29;20039;-81
2022/09/13 07:56:19;;;;;;;10.73;5.50;;;20.60;99.90;;;;;;4851649;29;20466;-81
2022/09/13 07:58:46;;;;;;;11.80;7.50;;;20.70;99.90;;;;;;4842197;29;20105;-81
2022/09/13 08:01:24;;;;;;;17.60;11.30;;;20.80;99.90;;;;;;4845189;29;20053;-81
2022/09/13 08:03:55;;;;;;;13.90;6.53;;;20.90;99.90;;;;;;4845384;29;20082;-83
2022/09/13 08:06:22;;;;;;;11.38;7.22;;;20.90;99.90;;;;;;4828688;29;20378;-81
2022/09/13 08:08:48;;;;;;;11.70;6.72;;;20.70;99.90;;;;;;4845287;29;20094;-81
2022/09/13 08:11:18;;;;;;;9.57;5.22;;;20.80;99.90;;;;;;4845168;29;20030;-82
2022/09/13 08:13:45;;;;;;;14.38;5.35;;;20.90;99.90;;;;;;4845608;29;20033;-83
2022/09/13 08:16:10;;;;;;;9.98;4.32;;;21.00;99.90;;;;;;4844704;29;20046;-81
2022/09/13 08:18:36;;;;;;;9.88;6.10;;;21.30;99.90;;;;;;4861055;29;20135;-81
2022/09/13 08:21:02;;;;;;;10.25;6.65;;;21.50;99.90;;;;;;4863308;29;20030;-80
2022/09/13 08:23:28;;;;;;;11.18;8.02;;;21.70;99.90;;;;;;4862371;29;20373;-81
2022/09/13 08:26:00;;;;;;;10.00;7.97;;;21.50;99.90;;;;;;4863358;29;20033;-81
2022/09/13 08:28:26;;;;;;;8.95;6.70;;;21.80;99.90;;;;;;4846864;29;20088;-81
2022/09/13 08:30:52;;;;;;;7.80;7.00;;;21.90;97.20;;;;;;4863161;29;20022;-81
2022/09/13 08:33:17;;;;;;;11.63;6.75;;;22.00;98.30;;;;;;4862063;29;20476;-81
2022/09/13 08:35:51;;;;;;;7.22;6.53;;;22.10;97.40;;;;;;4861770;29;20089;-83
2022/09/13 08:38:17;;;;;;;10.02;7.28;;;22.10;91.60;;;;;;4863454;29;20096;-81
2022/09/13 08:40:50;;;;;;;10.50;5.60;;;22.30;94.80;;;;;;4851927;29;20037;-81
2022/09/13 08:43:39;;;;;;;10.25;6.60;;;22.40;94.00;;;;;;4843011;29;20389;-81
2022/09/13 08:46:16;;;;;;;8.15;6.72;;;22.50;97.40;;;;;;4843069;29;20125;-81
2022/09/13 08:48:45;;;;;;;10.48;6.45;;;22.70;91.80;;;;;;4844528;29;20051;-81
2022/09/13 08:51:29;;;;;;;9.63;6.40;;;22.70;90.20;;;;;;4842448;29;20050;-81
2022/09/13 08:53:56;;;;;;;9.25;6.50;;;22.90;89.20;;;;;;4844741;29;20501;-81
2022/09/13 08:56:41;;;;;;;9.10;5.85;;;23.00;82.80;;;;;;4843350;29;20026;-81
2022/09/13 08:59:16;;;;;;;11.45;9.10;;;23.30;92.30;;;;;;4844541;29;20056;-80
2022/09/13 09:01:53;;;;;;;9.90;7.47;;;23.30;86.10;;;;;;4842872;29;20094;-80
2022/09/13 09:04:24;;;;;;;8.48;6.85;;;23.30;82.10;;;;;;4844331;29;20034;-79
2022/09/13 09:06:58;;;;;;;14.57;8.55;;;23.20;77.60;;;;;;4844012;29;20033;-80
2022/09/13 09:09:25;;;;;;;7.75;7.05;;;23.40;80.90;;;;;;4844425;29;20030;-80
2022/09/13 09:12:11;;;;;;;9.55;7.40;;;23.50;79.70;;;;;;4842963;29;20050;-80
2022/09/13 09:14:45;;;;;;;9.88;6.90;;;23.50;82.50;;;;;;4843865;29;20050;-81
2022/09/13 09:17:16;;;;;;;7.38;6.65;;;;;;;;;;4844665;29;20038;-80
2022/09/13 09:19:47;;;;;;;7.47;6.78;;;23.60;72.40;;;;;;4843864;29;20030;-80
2022/09/13 09:22:18;;;;;;;11.50;7.30;;;23.80;73.00;;;;;;4844418;29;20386;-78
2022/09/13 09:24:53;;;;;;;8.95;7.35;;;24.10;74.00;;;;;;4844001;29;20085;-80
2022/09/13 09:27:20;;;;;;;10.98;7.70;;;24.10;75.70;;;;;;4844069;29;20034;-81
2022/09/13 09:29:52;;;;;;;8.43;7.72;;;24.10;75.40;;;;;;4842418;29;20066;-81
2022/09/13 09:32:34;;;;;;;9.20;5.95;;;24.00;70.30;;;;;;4843931;29;20470;-81
2022/09/13 09:35:12;;;;;;;7.45;3.63;;;24.00;68.60;;;;;;4842527;29;20090;-81
2022/09/13 09:37:40;;;;;;;10.02;7.93;;;24.30;68.90;;;;;;4845233;29;20059;-80
2022/09/13 09:40:11;;;;;;;11.57;7.40;;;24.30;69.10;;;;;;4825328;29;20057;-81
2022/09/13 09:42:48;;;;;;;9.38;7.95;;;24.60;68.50;;;;;;4838801;29;20038;-80
2022/09/13 09:45:42;;;;;;;9.55;7.78;;;24.70;63.90;;;;;;4842999;29;20049;-80
2022/09/13 09:48:16;;;;;;;8.55;7.72;;;24.70;64.60;;;;;;4840031;29;20053;-81
2022/09/13 09:50:44;;;;;;;9.98;9.07;;;;;;;;;;4852017;29;20050;-82
2022/09/13 09:53:22;;;;;;;9.00;8.13;;;24.70;65.00;;;;;;4846876;29;20030;-82
2022/09/13 09:55:54;;;;;;;9.43;8.52;;;;;;;;;;4839826;29;20033;-80
2022/09/13 09:58:38;;;;;;;9.80;7.95;;;;;;;;;;4841864;29;20040;-81
2022/09/13 10:01:06;;;;;;;10.70;6.80;;;;;;;;;;4844278;29;20037;-80
2022/09/13 10:03:33;;;;;;;8.93;7.57;;;;;;;;;;4845312;29;20033;-81
2022/09/13 10:06:08;;;;;;;7.07;6.25;;;25.00;60.40;;;;;;4850403;29;20058;-81
2022/09/13 10:08:36;;;;;;;7.28;5.93;;;24.90;60.90;;;;;;4833207;29;20045;-81
2022/09/13 10:11:03;;;;;;;9.63;6.90;;;;;;;;;;4840377;29;20062;-82
2022/09/13 10:13:29;;;;;;;7.15;6.45;;;;;;;;;;4846578;29;20586;-81
2022/09/13 10:15:57;;;;;;;7.72;7.03;;;;;;;;;;4848661;29;20030;-81
2022/09/13 10:18:24;;;;;;;7.40;6.80;;;;;;;;;;4842452;29;20034;-81
2022/09/13 10:21:05;;;;;;;8.55;7.75;;;;;;;;;;4842005;29;20018;-82
2022/09/13 10:23:35;;;;;;;11.35;8.98;;;;;;;;;;4841285;29;20066;-81
2022/09/13 10:26:03;;;;;;;8.48;7.40;;;;;;;;;;4842354;29;20046;-81
2022/09/13 10:28:31;;;;;;;8.55;7.72;;;;;;;;;;4842212;29;20030;-80
2022/09/13 10:31:08;;;;;;;10.35;9.18;;;;;;;;;;4841724;29;20038;-79
2022/09/13 10:33:37;;;;;;;8.70;7.50;;;;;;;;;;4842449;29;20062;-83
2022/09/13 10:36:12;;;;;;;8.90;7.32;;;;;;;;;;4842713;29;20033;-82
2022/09/13 10:38:40;;;;;;;12.38;6.45;;;25.10;58.60;;;;;;4841818;29;20109;-83
2022/09/13 10:41:10;;;;;;;9.73;7.60;;;25.00;57.90;;;;;;4841072;29;20038;-81
2022/09/13 10:43:36;;;;;;;8.98;8.13;;;24.60;60.30;;;;;;4842104;29;20039;-82
2022/09/13 10:46:04;;;;;;;10.63;9.73;;;;;;;;;;4840808;29;20489;-82
2022/09/13 10:48:31;;;;;;;9.65;8.65;;;;;;;;;;4842174;29;20026;-83
2022/09/13 10:51:04;;;;;;;75.93;27.67;;;;;;;;;;4841908;29;20100;-82
2022/09/13 10:53:35;;;;;;;16.25;11.68;;;;;;;;;;4840822;29;20117;-81
2022/09/13 10:56:02;;;;;;;9.02;8.18;;;;;;;;;;4844501;29;20022;-77
2022/09/13 10:58:28;;;;;;;11.40;9.32;;;;;;;;;;4845960;29;20033;-78
2022/09/13 11:01:13;;;;;;;11.48;8.98;;;;;;;;;;4845515;29;20113;-80
2022/09/13 11:03:55;;;;;;;8.98;8.20;;;;;;;;;;4844204;29;20030;-79
2022/09/13 11:06:36;;;;;;;9.68;8.38;;;;;;;;;;4845661;29;20116;-77
2022/09/13 11:09:08;;;;;;;26.30;9.75;;;;;;;;;;4845527;29;20373;-77
2022/09/13 11:11:47;;;;;;;8.32;7.57;;;;;;;;;;4845586;29;20104;-77
2022/09/13 11:14:13;;;;;;;8.68;7.97;;;;;;;;;;4844212;29;20117;-77
2022/09/13 11:16:59;;;;;;;8.55;7.60;;;;;;;;;;4845394;29;20050;-78
2022/09/13 11:19:31;;;;;;;12.07;7.93;;;;;;;;;;4844342;29;20072;-77
2022/09/13 11:21:58;;;;;;;16.92;8.73;;;;;;;;;;4844794;29;20038;-78
2022/09/13 11:24:32;;;;;;;41.00;12.73;;;;;;;;;;4845354;29;20478;-78
2022/09/13 11:26:58;;;;;;;14.93;7.68;;;;;;;;;;4845024;29;20145;-77
2022/09/13 11:29:30;;;;;;;8.50;6.53;;;;;;;;;;4845054;29;20026;-78
2022/09/13 11:32:26;;;;;;;7.97;6.97;;;;;;;;;;4845000;29;20034;-78
2022/09/13 11:35:10;;;;;;;9.57;7.82;;;;;;;;;;4823841;29;20192;-77
2022/09/13 11:37:39;;;;;;;7.97;7.30;;;;;;;;;;4824408;29;20034;-77
2022/09/13 11:40:24;;;;;;;7.57;6.97;;;;;;;;;;4824601;29;20043;-78
2022/09/13 11:42:50;;;;;;;7.20;6.57;;;;;;;;;;4823940;29;20045;-78
2022/09/13 11:45:22;;;;;;;10.35;6.75;;;;;;;;;;4824052;29;20042;-79
2022/09/13 11:47:48;;;;;;;;;;;;;;;;;;4824593;29;20422;-81
2022/09/13 11:50:20;;;;;;;8.05;6.90;;;;;;;;;;4823838;29;19927;-81
2022/09/13 11:53:01;;;;;;;8.20;7.40;;;;;;;;;;4823699;29;20046;-80
2022/09/13 11:55:29;;;;;;;8.18;7.47;;;;;;;;;;4824010;29;20398;-79
2022/09/13 11:57:56;;;;;;;9.20;6.97;;;;;;;;;;4824355;29;20424;-80
2022/09/13 12:00:24;;;;;;;7.32;6.60;;;;;;;;;;4824119;29;20030;-80
2022/09/13 12:02:53;;;;;;;7.82;7.22;;;;;;;;;;4823625;29;20037;-80
2022/09/13 12:05:21;;;;;;;7.53;6.93;;;;;;;;;;4823692;29;20035;-80
2022/09/13 12:07:56;;;;;;;8.63;7.05;;;;;;;;;;4823707;29;20039;-79
2022/09/13 12:10:28;;;;;;;10.63;6.10;;;;;;;;;;4826695;29;20094;-80
2022/09/13 12:12:55;;;;;;;7.07;6.47;;;;;;;;;;4844468;29;20018;-80
2022/09/13 12:15:28;;;;;;;8.65;7.85;;;;;;;;;;4844703;29;20470;-79
2022/09/13 12:17:59;;;;;;;6.93;6.43;;;;;;;;;;4844322;29;20026;-79
2022/09/13 12:20:37;;;;;;;8.02;7.22;;;;;;;;;;4844312;29;20026;-78
2022/09/13 12:23:08;;;;;;;7.68;7.05;;;;;;;;;;4844162;29;20478;-78
2022/09/13 12:25:42;;;;;;;8.55;7.75;;;;;;;;;;4844234;29;20381;-78
2022/09/13 12:28:17;;;;;;;7.97;7.28;;;;;;;;;;4844194;29;20170;-79
2022/09/13 12:30:46;;;;;;;7.13;6.53;;;;;;;;;;4843775;29;20025;-79
2022/09/13 12:33:16;;;;;;;8.07;7.38;;;;;;;;;;4843174;29;20038;-80
2022/09/13 12:35:45;;;;;;;10.13;7.63;;;;;;;;;;4844110;29;20117;-80
2022/09/13 12:38:11;;;;;;;7.55;6.95;;;;;;;;;;4843883;29;20037;-78
2022/09/13 12:40:55;;;;;;;7.72;7.03;;;;;;;;;;4844033;29;20632;-79
2022/09/13 12:43:31;;;;;;;8.93;8.00;;;;;;;;;;4844606;29;20041;-78
2022/09/13 12:46:25;;;;;;;6.75;6.25;;;;;;;;;;4843829;29;20036;-78
2022/09/13 12:48:51;;;;;;;10.13;6.63;;;;;;;;;;4843757;29;20095;-79
2022/09/13 12:51:29;;;;;;;7.55;6.95;;;;;;;;;;4843963;29;20490;-80
2022/09/13 12:54:14;;;;;;;7.40;6.90;;;;;;;;;;4842601;29;20052;-79
2022/09/13 12:56:58;;;;;;;7.72;7.13;;;;;;;;;;4842521;29;20029;-79
2022/09/13 12:59:28;;;;;;;7.68;6.88;;;;;;;;;;4843426;29;20022;-79
2022/09/13 13:01:54;;;;;;;7.53;6.82;;;;;;;;;;4843706;29;20034;-79
2022/09/13 13:04:26;;;;;;;9.27;6.90;;;;;;;;;;4844453;29;20542;-81
2022/09/13 13:06:57;;;;;;;7.10;6.50;;;;;;;;;;4844241;29;20030;-81
2022/09/13 13:09:27;;;;;;;6.47;5.97;;;;;;;;;;4844089;29;20094;-79
2022/09/13 13:11:54;;;;;;;6.68;6.07;;;;;;;;;;4844164;29;20030;-80
2022/09/13 13:14:29;;;;;;;6.47;5.60;;;;;;;;;;4844122;29;20478;-81
2022/09/13 13:17:16;;;;;;;6.45;5.68;;;;;;;;;;4843496;29;20390;-79
2022/09/13 13:19:43;;;;;;;5.97;5.45;;;;;;;;;;4843424;29;20022;-78
2022/09/13 13:22:28;;;;;;;5.43;5.03;;;;;;;;;;4842541;29;20216;-79
2022/09/13 13:24:55;;;;;;;6.80;6.20;;;;;;;;;;4842828;29;20033;-79
2022/09/13 13:27:35;;;;;;;4.03;2.40;;;;;;;;;;4843866;29;20473;-80
2022/09/13 13:30:19;;;;;;;5.85;4.18;;;;;;;;;;4843927;29;20030;-79
2022/09/13 13:33:05;;;;;;;5.38;4.88;;;;;;;;;;4843960;29;20527;-79
2022/09/13 13:35:31;;;;;;;6.30;5.80;;;25.80;50.90;;;;;;4843813;29;20090;-78